createdAt,value
2023-01-04T00:00:23.374Z,100.00
2023-01-04T00:05:47.658Z,100.00
2023-01-04T00:10:51.964Z,100.00
2023-01-04T00:16:02.495Z,100.00
2023-01-04T00:21:13.582Z,100.00
2023-01-04T00:26:20.283Z,100.00
2023-01-04T00:31:27.241Z,100.00
2023-01-04T00:36:33.231Z,100.00
2023-01-04T00:47:06.302Z,100.00
2023-01-04T00:52:11.104Z,100.00
2023-01-04T00:57:15.713Z,100.00
2023-01-04T01:02:21.615Z,100.00
2023-01-04T01:07:26.072Z,100.00
2023-01-04T01:12:30.904Z,100.00
2023-01-04T01:17:37.491Z,100.00
2023-01-04T01:22:42.193Z,100.00
2023-01-04T01:27:46.505Z,100.00
2023-01-04T01:32:52.249Z,100.00
2023-01-04T01:37:56.659Z,100.00
2023-01-04T01:43:01.171Z,100.00
2023-01-04T01:48:13.765Z,100.00
2023-01-04T01:53:18.399Z,100.00
2023-01-04T01:58:28.101Z,100.00
2023-01-04T02:03:37.652Z,100.00
2023-01-04T02:08:44.318Z,100.00
2023-01-04T02:14:06.617Z,100.00
2023-01-04T02:19:32.265Z,100.00
2023-01-04T02:24:56.082Z,100.00
2023-01-04T02:31:01.021Z,100.00
2023-01-04T02:36:17.538Z,100.00
2023-01-04T02:41:29.292Z,100.00
2023-01-04T02:46:37.177Z,100.00
2023-01-04T02:51:42.955Z,100.00
2023-01-04T02:56:58.343Z,100.00
2023-01-04T03:02:39.631Z,100.00
2023-01-04T03:07:52.946Z,100.00
2023-01-04T03:13:12.875Z,100.00
2023-01-04T03:18:22.373Z,100.00
2023-01-04T03:23:49.471Z,100.00
2023-01-04T03:29:12.559Z,100.00
2023-01-04T03:34:34.306Z,100.00
2023-01-04T03:40:13.015Z,100.00
2023-01-04T03:45:38.416Z,100.00
2023-01-04T03:50:46.934Z,100.00
2023-01-04T03:55:54.220Z,100.00
2023-01-04T04:01:03.570Z,100.00
2023-01-04T04:06:27.855Z,100.00
2023-01-04T04:11:33.835Z,100.00
2023-01-04T04:16:38.748Z,100.00
2023-01-04T04:21:43.141Z,100.00
2023-01-04T04:26:49.127Z,100.00
2023-01-04T04:31:53.707Z,100.00
2023-01-04T04:36:58.067Z,100.00
2023-01-04T04:42:03.939Z,100.00
2023-01-04T04:47:08.437Z,100.00
2023-01-04T04:52:12.763Z,100.00
2023-01-04T04:57:18.546Z,100.00
2023-01-04T05:02:22.853Z,100.00
2023-01-04T05:07:27.627Z,100.00
2023-01-04T05:12:57.481Z,100.00
2023-01-04T05:18:02.388Z,100.00
2023-01-04T05:23:07.543Z,100.00
2023-01-04T05:28:13.244Z,100.00
2023-01-04T05:33:18.152Z,100.00
2023-01-04T05:38:23.905Z,100.00
2023-01-04T05:43:29.336Z,100.00
2023-01-04T05:48:33.749Z,100.00
2023-01-04T05:53:38.105Z,100.00
2023-01-04T05:58:43.864Z,100.00
2023-01-04T06:03:48.176Z,100.00
2023-01-04T06:08:52.586Z,100.00
2023-01-04T06:13:58.415Z,100.00
2023-01-04T06:19:03.406Z,100.00
2023-01-04T06:24:08.189Z,100.00
2023-01-04T06:29:14.311Z,100.00
2023-01-04T06:34:24.038Z,100.00
2023-01-04T06:39:32.256Z,100.00
2023-01-04T06:44:38.214Z,100.00
2023-01-04T06:49:42.589Z,100.00
2023-01-04T06:54:47.010Z,100.00
2023-01-04T06:59:53.740Z,100.00
2023-01-04T07:04:58.152Z,100.00
2023-01-04T07:10:09.313Z,100.00
2023-01-04T07:15:39.595Z,100.00
2023-01-04T07:20:40.594Z,100.00
2023-01-04T07:25:45.029Z,100.00
2023-01-04T07:30:51.081Z,100.00
2023-01-04T07:35:55.661Z,100.00
2023-01-04T07:40:59.939Z,100.00
2023-01-04T07:46:06.155Z,100.00
2023-01-04T07:51:10.887Z,100.00
2023-01-04T07:56:18.765Z,100.00
2023-01-04T08:01:25.939Z,100.00
2023-01-04T08:06:30.522Z,100.00
2023-01-04T08:11:37.060Z,100.00
2023-01-04T08:16:44.844Z,100.00
2023-01-04T08:21:50.227Z,100.00
2023-01-04T08:26:54.739Z,100.00
2023-01-04T08:32:00.770Z,100.00
2023-01-04T08:37:05.321Z,100.00
2023-01-04T08:42:22.117Z,100.00
2023-01-04T08:47:32.196Z,100.00
2023-01-04T08:52:37.118Z,100.00
2023-01-04T08:57:41.841Z,100.00
2023-01-04T09:02:48.132Z,100.00
2023-01-04T09:07:53.127Z,100.00
2023-01-04T09:12:58.391Z,100.00
2023-01-04T09:18:30.728Z,100.00
2023-01-04T09:23:30.512Z,100.00
2023-01-04T09:28:35.044Z,100.00
2023-01-04T09:34:12.786Z,100.00
2023-01-04T09:39:05.765Z,100.00
2023-01-04T09:44:19.392Z,100.00
2023-01-04T09:49:29.988Z,100.00
2023-01-04T09:54:41.258Z,100.00
2023-01-04T09:59:46.545Z,100.00
2023-01-04T10:04:53.636Z,100.00
2023-01-04T10:09:59.594Z,100.00
2023-01-04T10:15:15.294Z,100.00
2023-01-04T10:26:16.428Z,100.00
2023-01-04T10:31:40.467Z,100.00
2023-01-04T10:36:48.931Z,100.00
2023-01-04T10:41:57.767Z,100.00
2023-01-04T10:47:09.995Z,100.00
2023-01-04T10:52:21.971Z,100.00
2023-01-04T10:57:33.267Z,100.00
2023-01-04T11:02:44.371Z,100.00
2023-01-04T11:07:55.247Z,100.00
2023-01-04T11:12:59.684Z,100.00
2023-01-04T11:18:07.997Z,100.00
2023-01-04T11:23:16.748Z,100.00
2023-01-04T11:28:26.180Z,100.00
2023-01-04T11:33:30.777Z,100.00
2023-01-04T11:38:36.734Z,100.00
2023-01-04T11:43:41.049Z,100.00
2023-01-04T11:48:48.034Z,98.46
2023-01-04T11:54:05.254Z,91.79
2023-01-04T11:59:24.948Z,86.70
2023-01-04T12:04:35.238Z,86.11
2023-01-04T12:09:41.719Z,87.16
2023-01-04T12:14:48.468Z,82.09
2023-01-04T12:19:55.347Z,85.73
2023-01-04T12:25:02.844Z,78.90
2023-01-04T12:30:09.026Z,76.28
2023-01-04T12:35:32.097Z,77.27
2023-01-04T12:40:57.340Z,74.43
2023-01-04T12:47:01.489Z,72.96
2023-01-04T12:53:02.289Z,73.24
2023-01-04T12:59:15.228Z,73.18
2023-01-04T13:04:29.964Z,74.54
2023-01-04T13:09:34.881Z,75.41
2023-01-04T13:14:44.948Z,74.68
2023-01-04T13:19:50.737Z,70.80
2023-01-04T13:24:57.788Z,69.08
2023-01-04T13:30:04.602Z,69.24
2023-01-04T13:35:14.771Z,73.94
2023-01-04T13:40:26.016Z,76.95
2023-01-04T13:45:54.356Z,79.71
2023-01-04T13:51:03.769Z,80.98
2023-01-04T13:56:18.528Z,87.16
2023-01-04T14:01:27.812Z,88.88
2023-01-04T14:06:35.779Z,94.06
2023-01-04T14:12:06.828Z,96.28
2023-01-04T14:17:19.961Z,99.20
2023-01-04T14:22:39.368Z,100.00
2023-01-04T14:27:44.378Z,100.00
2023-01-04T14:32:56.968Z,100.00
2023-01-04T14:38:06.151Z,100.00
2023-01-04T14:43:34.146Z,100.00
2023-01-04T14:48:40.305Z,100.00
2023-01-04T14:53:44.965Z,100.00
2023-01-04T14:58:49.400Z,100.00
2023-01-04T15:03:55.422Z,100.00
2023-01-04T15:09:00.015Z,100.00
2023-01-04T15:14:04.570Z,100.00
2023-01-04T15:19:10.287Z,100.00
2023-01-04T15:24:14.600Z,100.00
2023-01-04T15:29:19.069Z,100.00
2023-01-04T15:34:24.919Z,100.00
2023-01-04T15:39:29.306Z,100.00
2023-01-04T15:44:33.810Z,100.00
2023-01-04T15:49:39.591Z,100.00
2023-01-04T15:54:43.656Z,100.00
2023-01-04T15:59:48.948Z,100.00
2023-01-04T16:04:54.798Z,100.00
2023-01-04T16:09:59.186Z,100.00
2023-01-04T16:15:03.631Z,100.00
2023-01-04T16:20:10.990Z,100.00
2023-01-04T16:25:15.721Z,100.00
2023-01-04T16:30:25.870Z,100.00
2023-01-04T16:35:35.349Z,100.00
2023-01-04T16:40:39.964Z,100.00
2023-01-04T16:45:44.492Z,100.00
2023-01-04T16:50:50.457Z,100.00
2023-01-04T16:55:54.783Z,100.00
2023-01-04T17:01:07.778Z,100.00
2023-01-04T17:06:16.543Z,100.00
2023-01-04T17:16:47.943Z,100.00
2023-01-04T17:21:56.810Z,100.00
2023-01-04T17:27:01.299Z,100.00
2023-01-04T17:32:05.959Z,100.00
2023-01-04T17:37:11.731Z,100.00
2023-01-04T17:42:16.005Z,100.00
2023-01-04T17:47:20.570Z,100.00
2023-01-04T17:52:31.165Z,100.00
2023-01-04T17:57:36.001Z,100.00
2023-01-04T18:02:40.547Z,100.00
2023-01-04T18:07:46.477Z,100.00
2023-01-04T18:12:51.195Z,100.00
2023-01-04T18:17:55.573Z,100.00
2023-01-04T18:23:01.608Z,100.00
2023-01-04T18:28:05.721Z,100.00
2023-01-04T18:33:10.002Z,100.00
2023-01-04T18:38:15.759Z,100.00
2023-01-04T18:43:20.045Z,100.00
2023-01-04T18:48:24.327Z,100.00
2023-01-04T18:53:30.135Z,100.00
2023-01-04T18:58:35.837Z,100.00
2023-01-04T19:03:41.896Z,100.00
2023-01-04T19:08:53.385Z,100.00
2023-01-04T19:14:00.849Z,100.00
2023-01-04T19:19:05.374Z,100.00
2023-01-04T19:24:11.219Z,100.00
2023-01-04T19:29:15.233Z,100.00
2023-01-04T19:34:19.533Z,100.00
2023-01-04T19:39:25.384Z,100.00
2023-01-04T19:44:29.738Z,100.00
2023-01-04T19:49:34.235Z,100.00
2023-01-04T19:54:39.932Z,100.00
2023-01-04T19:59:43.980Z,100.00
2023-01-04T20:04:48.423Z,100.00
2023-01-04T20:09:54.249Z,100.00
2023-01-04T20:14:58.501Z,100.00
2023-01-04T20:20:02.763Z,100.00
2023-01-04T20:25:09.388Z,100.00
2023-01-04T20:30:14.182Z,100.00
2023-01-04T20:35:20.094Z,100.00
2023-01-04T20:40:26.616Z,100.00
2023-01-04T20:45:30.908Z,100.00
2023-01-04T20:50:35.742Z,100.00
2023-01-04T20:55:42.550Z,100.00
2023-01-04T21:00:47.898Z,100.00
2023-01-04T21:05:52.199Z,100.00
2023-01-04T21:10:58.470Z,100.00
2023-01-04T21:16:03.635Z,100.00
2023-01-04T21:21:08.910Z,100.00
2023-01-04T21:26:16.098Z,100.00
2023-01-04T21:31:24.244Z,100.00
2023-01-04T21:36:29.683Z,100.00
2023-01-04T21:41:35.646Z,100.00
2023-01-04T21:46:39.842Z,100.00
2023-01-04T21:51:44.685Z,100.00
2023-01-04T21:56:50.691Z,100.00
2023-01-04T22:01:54.759Z,100.00
2023-01-04T22:06:59.228Z,100.00
2023-01-04T22:12:05.701Z,100.00
2023-01-04T22:17:10.068Z,100.00
2023-01-04T22:22:14.413Z,100.00
2023-01-04T22:27:20.228Z,100.00
2023-01-04T22:32:24.232Z,100.00
2023-01-04T22:37:28.478Z,100.00
2023-01-04T22:42:34.194Z,100.00
2023-01-04T22:47:38.336Z,100.00
2023-01-04T22:52:47.330Z,100.00
2023-01-04T22:57:56.470Z,100.00
2023-01-04T23:03:02.533Z,100.00
2023-01-04T23:08:07.278Z,100.00
2023-01-04T23:13:13.040Z,100.00
2023-01-04T23:18:17.383Z,100.00
2023-01-04T23:23:21.769Z,100.00
2023-01-04T23:28:27.488Z,100.00
2023-01-04T23:33:35.897Z,100.00
2023-01-04T23:38:41.942Z,100.00
2023-01-04T23:43:47.706Z,100.00
2023-01-04T23:48:52.027Z,100.00
2023-01-04T23:53:56.300Z,100.00
2023-01-04T23:59:02.456Z,100.00
